Time;durP1;ratioP1;P1;durP2;ratioP2;P2;SDS_P1;SDS_P2;PMS_P1;PMS_P2;Temp;Humidity;BMP_temperature;BMP_pressure;BME280_temperature;BME280_humidity;BME280_pressure;Samples;Min_cycle;Max_cycle;Signal;HPM_P1;HPM_P2
2022/05/08 00:01:47;;;;;;;4.03;2.10;;;;;;;12.01;44.42;94373.75;5083301;28;20025;-85
2022/05/08 00:04:13;;;;;;;7.35;3.00;;;;;;;12.01;44.34;94372.97;5082859;28;20020;-85
2022/05/08 00:06:38;;;;;;;8.98;2.05;;;;;;;11.93;44.47;94365.69;5083387;28;20024;-85
2022/05/08 00:09:04;;;;;;;7.82;2.58;;;;;;;11.90;44.57;94371.66;5083563;28;20384;-89
2022/05/08 00:11:29;;;;;;;6.50;2.20;;;;;;;11.85;44.73;94375.22;5083838;28;20083;-88
2022/05/08 00:13:55;;;;;;;6.97;2.03;;;;;;;11.74;44.90;94358.66;5083517;28;20024;-88
2022/05/08 00:16:21;;;;;;;7.20;2.13;;;;;;;11.68;44.94;94369.78;5083467;28;20215;-88
2022/05/08 00:18:46;;;;;;;8.60;1.95;;;;;;;11.60;45.18;94363.31;5083192;28;20083;-88
2022/05/08 00:21:11;;;;;;;4.57;2.22;;;;;;;11.53;45.36;94362.97;5066111;28;20386;-88
2022/05/08 00:23:37;;;;;;;15.40;2.40;;;;;;;11.52;45.56;94361.38;5083409;28;20028;-88
2022/05/08 00:26:07;;;;;;;8.27;2.40;;;;;;;11.47;45.94;94370.31;5083788;28;20107;-88
2022/05/08 00:28:33;;;;;;;4.47;1.90;;;;;;;11.43;45.94;94372.00;5082963;28;20020;-86
2022/05/08 00:30:58;;;;;;;7.15;2.53;;;;;;;11.38;46.16;94372.16;5083452;28;20032;-88
2022/05/08 00:33:24;;;;;;;5.15;1.90;;;;;;;11.30;46.16;94365.66;5083685;28;20017;-87
2022/05/08 00:35:50;;;;;;;11.57;2.72;;;;;;;11.23;46.71;94371.44;5065349;28;20020;-88
2022/05/08 00:38:15;;;;;;;9.25;2.10;;;;;;;11.21;46.60;94360.28;5083576;28;20024;-87
2022/05/08 00:40:41;;;;;;;13.35;2.30;;;;;;;11.15;46.61;94361.47;5064954;28;20071;-86
2022/05/08 00:43:33;;;;;;;6.45;2.33;;;;;;;11.10;46.44;94366.94;5083029;28;20059;-87
2022/05/08 00:46:04;;;;;;;10.90;3.63;;;;;;;11.03;46.61;94370.03;5083235;28;20099;-87
2022/05/08 00:48:30;;;;;;;13.60;2.90;;;;;;;10.96;47.29;94369.66;5082948;28;20052;-88
2022/05/08 00:50:56;;;;;;;5.85;2.65;;;;;;;10.90;47.82;94362.88;5065127;28;20099;-88
2022/05/08 00:53:25;;;;;;;7.00;2.17;;;;;;;10.84;47.76;94366.75;5083123;28;20079;-86
2022/05/08 00:55:52;;;;;;;6.30;2.40;;;;;;;10.78;48.27;94359.94;5082670;28;20240;-87
2022/05/08 00:58:18;;;;;;;5.97;2.72;;;;;;;10.76;48.90;94362.13;5083034;28;20056;-87
2022/05/08 01:00:43;;;;;;;4.88;2.60;;;;;;;10.69;48.93;94362.56;5083059;28;20066;-87
2022/05/08 01:03:11;;;;;;;6.20;3.30;;;;;;;10.66;48.85;94365.03;5082913;28;20282;-88
2022/05/08 01:05:41;;;;;;;7.03;3.47;;;;;;;10.61;49.15;94361.38;5082827;28;20112;-87
2022/05/08 01:08:09;;;;;;;7.88;3.28;;;;;;;10.56;48.79;94368.69;5082588;28;20338;-84
2022/05/08 01:10:36;;;;;;;9.75;2.42;;;;;;;10.52;49.50;94365.06;5064712;28;20030;-83
2022/05/08 01:13:01;;;;;;;9.20;2.97;;;;;;;10.50;49.78;94362.72;5082364;28;20020;-84
2022/05/08 01:15:28;;;;;;;12.15;2.85;;;;;;;10.41;49.85;94367.94;5082898;28;20337;-83
2022/05/08 01:17:53;;;;;;;6.30;2.50;;;;;;;10.39;50.02;94367.44;5086211;28;20027;-84
2022/05/08 01:20:19;;;;;;;7.20;2.72;;;;;;;10.32;49.95;94358.28;5086314;28;20092;-83
2022/05/08 01:22:44;;;;;;;10.43;2.85;;;;;;;10.25;49.98;94364.78;5086308;28;20032;-83
2022/05/08 01:25:10;;;;;;;10.35;2.90;;;;;;;10.21;50.46;94365.66;5086173;28;20021;-83
2022/05/08 01:27:35;;;;;;;7.88;2.72;;;;;;;10.19;51.16;94360.63;5085807;28;20248;-84
2022/05/08 01:30:01;;;;;;;5.43;2.47;;;;;;;10.14;51.31;94362.63;5086087;28;20027;-84
2022/05/08 01:32:26;;;;;;;9.15;2.55;;;;;;;10.11;51.64;94365.88;5086203;28;20091;-83
2022/05/08 01:34:52;;;;;;;5.35;2.75;;;;;;;10.06;51.68;94360.66;5068133;28;20107;-84
2022/05/08 01:37:18;;;;;;;7.82;3.40;;;;;;;9.95;51.35;94360.06;5086166;28;20020;-84
2022/05/08 01:39:43;;;;;;;5.88;2.83;;;;;;;9.90;51.53;94354.84;5085904;28;20058;-83
2022/05/08 01:42:09;;;;;;;4.22;2.40;;;;;;;9.88;51.81;94354.34;5085731;28;20200;-83
2022/05/08 01:44:34;;;;;;;6.50;2.80;;;;;;;9.88;51.99;94349.81;5085684;28;20345;-83
2022/05/08 01:49:44;;;;;;;6.30;3.25;;;;;;;9.78;52.00;94344.69;5086188;28;20301;-86
2022/05/08 01:52:10;;;;;;;8.75;2.42;;;;;;;9.70;52.07;94353.34;5086102;28;20025;-88
2022/05/08 01:54:35;;;;;;;5.68;2.38;;;;;;;9.62;52.23;94346.84;5067956;28;20025;-88
2022/05/08 01:57:01;;;;;;;4.32;2.50;;;;;;;9.59;52.60;94353.56;5086006;28;20024;-88
2022/05/08 01:59:26;;;;;;;10.15;2.25;;;;;;;9.53;52.41;94343.28;5085573;28;20044;-87
2022/05/08 02:01:52;;;;;;;10.20;3.10;;;;;;;9.46;52.81;94346.31;5085685;28;20333;-86
2022/05/08 02:04:18;;;;;;;12.52;2.78;;;;;;;9.36;53.24;94349.97;5067765;28;20215;-85
2022/05/08 02:06:44;;;;;;;7.93;2.80;;;;;;;9.29;53.28;94344.22;5085463;28;20020;-85
2022/05/08 02:09:10;;;;;;;7.13;2.70;;;;;;;9.19;53.52;94350.50;5085351;28;20036;-84
2022/05/08 02:11:35;;;;;;;10.65;3.10;;;;;;;9.12;53.60;94357.28;5085546;28;20087;-84
2022/05/08 02:14:02;;;;;;;10.65;3.20;;;;;;;8.99;53.80;94345.53;5085243;28;20330;-85
2022/05/08 02:16:29;;;;;;;12.05;3.60;;;;;;;8.97;54.10;94347.69;5085710;28;20222;-85
2022/05/08 02:18:55;;;;;;;7.22;2.35;;;;;;;8.93;54.28;94341.38;5085285;28;20020;-86
2022/05/08 02:21:21;;;;;;;8.30;3.15;;;;;;;8.91;54.38;94346.97;5085120;28;20024;-85
2022/05/08 02:23:46;;;;;;;8.38;3.08;;;;;;;8.89;54.61;94356.31;5085973;28;20036;-86
2022/05/08 02:26:12;;;;;;;5.40;2.83;;;;;;;8.90;54.45;94350.72;5085377;28;20020;-85
2022/05/08 02:28:39;;;;;;;8.88;2.53;;;;;;;8.90;54.31;94348.06;5084270;28;20099;-85
2022/05/08 02:31:04;;;;;;;11.23;3.42;;;;;;;8.94;54.75;94350.94;5085175;28;20028;-86
2022/05/08 02:33:29;;;;;;;8.20;2.97;;;;;;;8.92;55.38;94345.91;5085173;28;20326;-87
2022/05/08 02:35:55;;;;;;;6.78;3.05;;;;;;;8.90;55.09;94358.69;5084978;28;20218;-85
2022/05/08 02:38:20;;;;;;;7.65;3.47;;;;;;;8.89;54.97;94346.47;5085144;28;20108;-84
2022/05/08 02:40:46;;;;;;;6.47;2.78;;;;;;;8.91;55.05;94360.25;5085178;28;20044;-85
2022/05/08 02:43:11;;;;;;;6.95;2.80;;;;;;;8.92;54.60;94343.25;5084918;28;20066;-84
2022/05/08 02:45:36;;;;;;;14.48;3.15;;;;;;;8.89;54.66;94346.47;5084666;28;20020;-83
2022/05/08 02:48:02;;;;;;;7.32;3.38;;;;;;;8.91;54.90;94354.16;5084678;28;20307;-84
2022/05/08 02:50:27;;;;;;;8.60;3.42;;;;;;;8.89;54.88;94348.34;5084587;28;20043;-84
2022/05/08 02:52:53;;;;;;;7.22;3.20;;;;;;;8.84;54.60;94342.03;5084599;28;20047;-84
2022/05/08 03:00:48;;;;;;;5.20;2.83;;;;;;;8.82;55.31;94360.13;5084596;28;20138;-84
2022/05/08 03:03:14;;;;;;;5.72;3.20;;;;;;;8.82;55.77;94354.03;5084320;28;20025;-84
2022/05/08 03:05:45;;;;;;;11.90;3.08;;;;;;;8.76;55.54;94358.63;5084538;28;20032;-84
2022/05/08 03:08:11;;;;;;;4.40;2.97;;;;;;;8.75;55.67;94354.41;5084295;28;20024;-86
2022/05/08 03:13:21;;;;;;;12.48;5.28;;;;;;;8.73;56.24;94350.44;5084745;28;20020;-86
2022/05/08 03:15:47;;;;;;;6.03;3.30;;;;;;;8.68;56.57;94361.16;5084477;28;20020;-86
2022/05/08 03:18:14;;;;;;;7.38;3.50;;;;;;;8.70;56.63;94366.97;5084244;28;20024;-86
2022/05/08 03:20:40;;;;;;;14.60;5.43;;;;;;;8.68;56.58;94351.31;5084050;28;20061;-83
2022/05/08 03:23:06;;;;;;;10.73;4.10;;;;;;;8.65;56.30;94365.19;5084106;28;20039;-86
2022/05/08 03:25:31;;;;;;;15.57;3.85;;;;;;;8.61;55.81;94357.00;5083964;28;20250;-85
2022/05/08 03:27:57;;;;;;;10.30;3.40;;;;;;;8.58;55.61;94362.88;5083951;28;20070;-85
2022/05/08 03:30:24;;;;;;;11.77;3.30;;;;;;;8.55;55.85;94363.47;5083999;28;20020;-85
2022/05/08 03:32:49;;;;;;;9.35;3.20;;;;;;;8.52;56.07;94373.88;5084015;28;20341;-85
2022/05/08 03:35:15;;;;;;;9.35;3.42;;;;;;;8.53;56.13;94365.63;5083767;28;20047;-85
2022/05/08 03:37:40;;;;;;;6.60;3.25;;;;;;;8.54;56.34;94367.19;5083979;28;20028;-85
2022/05/08 03:40:06;;;;;;;10.15;3.50;;;;;;;8.55;56.71;94366.13;5083671;28;20077;-85
2022/05/08 03:42:32;;;;;;;11.23;4.30;;;;;;;8.60;58.41;94363.38;5083589;28;20338;-85
2022/05/08 03:44:57;;;;;;;12.50;4.07;;;;;;;8.59;57.93;94367.13;5083742;28;20152;-85
2022/05/08 03:47:23;;;;;;;7.88;3.65;;;;;;;8.63;57.09;94376.09;5083611;28;20319;-84
2022/05/08 03:49:49;;;;;;;6.82;3.22;;;;;;;8.66;55.71;94373.94;5083403;28;20024;-83
2022/05/08 03:52:14;;;;;;;8.50;3.38;;;;;;;8.68;55.75;94379.78;5083718;28;20302;-85
2022/05/08 03:54:40;;;;;;;7.15;4.22;;;;;;;8.74;56.66;94378.63;5083741;28;20012;-83
2022/05/08 03:57:05;;;;;;;13.35;3.45;;;;;;;8.77;57.24;94376.19;5083273;28;20057;-83
2022/05/08 03:59:31;;;;;;;8.82;3.45;;;;;;;8.80;57.23;94380.13;5082942;28;20294;-83
2022/05/08 04:01:57;;;;;;;13.13;3.72;;;;;;;8.83;55.83;94379.53;5083295;28;20073;-83
2022/05/08 04:04:22;;;;;;;10.10;3.17;;;;;;;8.87;54.88;94377.88;5083296;28;20024;-84
2022/05/08 04:06:48;;;;;;;7.65;3.45;;;;;;;8.87;54.89;94369.91;5083091;28;20341;-84
2022/05/08 04:09:16;;;;;;;7.45;2.95;;;;;;;8.90;54.68;94372.00;5083395;28;20028;-86
2022/05/08 04:11:41;;;;;;;6.93;3.28;;;;;;;8.90;54.57;94379.19;5083476;28;20020;-85
2022/05/08 04:14:07;;;;;;;5.82;3.25;;;;;;;8.92;54.14;94367.19;5083079;28;20039;-85
2022/05/08 04:16:32;;;;;;;10.60;3.58;;;;;;;8.90;54.27;94373.88;5083364;28;20028;-85
2022/05/08 04:18:58;;;;;;;5.72;3.00;;;;;;;8.92;54.01;94380.47;5083368;28;20322;-86
2022/05/08 04:21:23;;;;;;;4.72;2.50;;;;;;;8.89;54.63;94382.91;5083612;28;20092;-86
2022/05/08 04:26:34;;;;;;;8.80;3.20;;;;;;;8.92;54.20;94382.34;5083070;28;20032;-85
2022/05/08 04:29:00;;;;;;;7.78;3.45;;;;;;;8.94;53.34;94386.28;5082964;28;20224;-84
2022/05/08 04:31:25;;;;;;;8.55;3.50;;;;;;;8.91;54.40;94389.50;5083411;28;20031;-85
2022/05/08 04:33:51;;;;;;;11.93;3.75;;;;;;;8.89;54.34;94394.31;5083508;28;20223;-85
2022/05/08 04:36:17;;;;;;;6.97;3.17;;;;;;;8.90;53.16;94392.47;5082903;28;20025;-85
2022/05/08 04:38:43;;;;;;;8.48;3.05;;;;;;;8.93;52.89;94395.31;5083116;28;20024;-85
2022/05/08 04:41:08;;;;;;;12.98;3.80;;;;;;;8.95;52.72;94387.06;5082957;28;20056;-85
2022/05/08 04:43:34;;;;;;;6.78;3.75;;;;;;;9.00;53.03;94398.41;5083126;28;20040;-86
2022/05/08 04:45:59;;;;;;;9.98;3.10;;;;;;;9.03;52.38;94392.50;5083523;28;20087;-86
2022/05/08 04:48:25;;;;;;;10.65;3.20;;;;;;;9.06;51.31;94396.47;5083105;28;20370;-86
2022/05/08 04:50:50;;;;;;;8.82;3.40;;;;;;;9.10;50.80;94394.81;5084669;28;20058;-86
2022/05/08 04:53:16;;;;;;;9.00;3.00;;;;;;;9.17;49.91;94395.22;5103028;28;20032;-85
2022/05/08 04:55:41;;;;;;;8.93;2.72;;;;;;;9.28;49.54;94398.53;5087111;28;20055;-85
2022/05/08 04:58:07;;;;;;;9.60;2.90;;;;;;;9.41;48.57;94405.75;5086986;28;20051;-86
2022/05/08 05:00:32;;;;;;;6.97;2.78;;;;;;;9.54;47.73;94398.88;5086848;28;20029;-86
2022/05/08 05:02:57;;;;;;;9.15;2.45;;;;;;;9.64;47.32;94400.56;5086906;28;20052;-86
2022/05/08 05:05:23;;;;;;;6.55;2.97;;;;;;;9.66;47.46;94403.72;5087063;28;20029;-85
2022/05/08 05:07:49;;;;;;;7.72;3.10;;;;;;;9.77;47.21;94406.97;5087121;28;20028;-85
2022/05/08 05:10:15;;;;;;;7.35;2.80;;;;;;;9.84;46.85;94410.84;5087003;28;20306;-87
2022/05/08 05:12:40;;;;;;;8.60;3.10;;;;;;;9.86;46.47;94404.44;5086796;28;20028;-84
2022/05/08 05:15:06;;;;;;;5.80;2.53;;;;;;;9.90;46.70;94410.75;5086705;28;20025;-87
2022/05/08 05:17:32;;;;;;;7.97;2.60;;;;;;;9.92;46.66;94409.38;5086634;28;20029;-85
2022/05/08 05:19:58;;;;;;;11.90;2.97;;;;;;;9.94;46.69;94406.44;5086511;28;20028;-86
2022/05/08 05:22:24;;;;;;;9.27;3.10;;;;;;;10.01;46.84;94409.47;5102397;28;20032;-85
2022/05/08 05:24:50;;;;;;;6.30;2.72;;;;;;;10.06;46.74;94409.41;5086980;28;20024;-85
2022/05/08 05:27:15;;;;;;;11.32;3.05;;;;;;;10.10;46.39;94412.25;5086326;28;20039;-86
2022/05/08 05:29:41;;;;;;;9.68;2.78;;;;;;;10.14;46.12;94406.03;5068969;28;20027;-85
2022/05/08 05:32:07;;;;;;;11.27;3.10;;;;;;;10.20;46.09;94404.84;5086371;28;20230;-85
2022/05/08 05:34:32;;;;;;;13.60;3.95;;;;;;;10.23;46.01;94409.56;5086646;28;20070;-86
2022/05/08 05:36:58;;;;;;;10.95;2.53;;;;;;;10.32;45.41;94404.38;5086257;28;20027;-85
2022/05/08 05:39:26;;;;;;;6.90;2.60;;;;;;;10.39;45.74;94406.63;5086219;28;20024;-85
2022/05/08 05:41:51;;;;;;;12.18;2.95;;;;;;;10.41;45.76;94407.91;5068405;28;20141;-85
2022/05/08 05:44:17;;;;;;;10.68;3.85;;;;;;;10.49;45.41;94401.09;5068710;28;20314;-84
2022/05/08 05:49:27;;;;;;;5.93;2.28;;;;;;;10.61;45.45;94414.69;5086206;28;20060;-83
2022/05/08 05:51:56;;;;;;;13.88;2.83;;;;;;;10.70;46.36;94403.31;5085974;28;20021;-83
2022/05/08 05:54:22;;;;;;;7.35;2.50;;;;;;;10.75;45.19;94403.22;5085961;28;20021;-83
2022/05/08 05:56:48;;;;;;;9.20;3.00;;;;;;;10.65;44.54;94404.22;5085878;28;20200;-84
2022/05/08 05:59:14;;;;;;;8.18;2.40;;;;;;;10.69;45.10;94409.75;5085647;28;20108;-83
2022/05/08 06:01:39;;;;;;;6.10;2.80;;;;;;;10.81;44.67;94402.03;5085495;28;20066;-83
2022/05/08 06:04:04;;;;;;;5.95;2.40;;;;;;;10.87;44.36;94395.50;5086006;28;20021;-85
2022/05/08 06:06:30;;;;;;;12.70;2.72;;;;;;;10.95;44.08;94402.78;5087682;28;20024;-84
2022/05/08 06:08:55;;;;;;;8.32;3.05;;;;;;;10.86;44.44;94396.56;5087322;28;20102;-85
2022/05/08 06:11:29;;;;;;;10.10;3.53;;;;;;;10.92;44.62;94395.38;5087047;28;20044;-87
2022/05/08 06:13:54;;;;;;;17.17;4.70;;;;;;;11.09;44.53;94401.91;5085813;28;20020;-88
2022/05/08 06:16:22;;;;;;;11.80;2.42;;;;;;;11.17;43.57;94387.84;5086801;28;20266;-87
2022/05/08 06:18:50;;;;;;;7.88;2.40;;;;;;;11.21;43.86;94388.81;5086673;28;20032;-87
2022/05/08 06:21:16;;;;;;;7.15;2.65;;;;;;;11.36;42.87;94395.69;5085356;28;20024;-87
2022/05/08 06:23:43;;;;;;;8.25;3.60;;;;;;;11.38;43.07;94396.97;5085368;28;20028;-87
2022/05/08 06:26:09;;;;;;;8.40;2.55;;;;;;;11.52;43.06;94390.75;5085897;28;20024;-87
2022/05/08 06:28:34;;;;;;;7.35;2.17;;;;;;;11.68;42.15;94397.28;5085654;28;20035;-87
2022/05/08 06:31:03;;;;;;;8.30;2.50;;;;;;;11.76;42.63;94391.19;5085426;28;20268;-86
2022/05/08 06:33:29;;;;;;;4.68;1.98;;;;;;;11.90;42.82;94385.00;5085512;28;20021;-86
2022/05/08 06:35:54;;;;;;;10.88;2.83;;;;;;;12.05;42.59;94389.94;5085683;28;20024;-86
2022/05/08 06:38:20;;;;;;;7.05;2.55;;;;;;;12.17;41.79;94384.00;5085491;28;20025;-86
2022/05/08 06:40:46;;;;;;;6.05;2.60;;;;;;;12.17;41.83;94386.66;5085329;28;20024;-87
2022/05/08 06:43:11;;;;;;;5.70;2.03;;;;;;;12.25;42.03;94383.22;5084523;28;20028;-83
2022/05/08 06:45:37;;;;;;;19.58;2.85;;;;;;;12.33;41.00;94384.34;5084803;28;20020;-82
2022/05/08 06:48:03;;;;;;;7.28;3.40;;;;;;;12.31;41.66;94381.97;5084389;28;20095;-80
2022/05/08 06:50:33;;;;;;;12.23;2.90;;;;;;;12.32;41.06;94382.78;5084945;28;20095;-84
2022/05/08 06:52:59;;;;;;;5.65;2.33;;;;;;;12.39;41.09;94381.22;5084740;28;20039;-83
2022/05/08 06:55:24;;;;;;;6.95;2.42;;;;;;;12.46;40.51;94380.78;5084805;28;20020;-83
2022/05/08 06:57:50;;;;;;;11.80;2.58;;;;;;;12.54;40.38;94376.56;5084136;28;20041;-83
2022/05/08 07:03:03;;;;;;;10.07;2.85;;;;;;;12.72;40.99;94380.81;5084274;28;20097;-81
2022/05/08 07:05:28;;;;;;;9.40;2.60;;;;;;;12.89;41.32;94381.94;5084282;28;20246;-81
2022/05/08 07:07:53;;;;;;;7.47;2.80;;;;;;;13.10;40.36;94374.06;5084475;28;20017;-85
2022/05/08 07:10:19;;;;;;;6.57;2.72;;;;;;;13.25;40.61;94370.91;5084798;28;20034;-86
2022/05/08 07:12:45;;;;;;;12.05;2.70;;;;;;;13.39;40.36;94374.22;5083352;28;20210;-85
2022/05/08 07:15:10;;;;;;;7.60;3.33;;;;;;;13.55;39.62;94376.38;5084040;28;20095;-73
2022/05/08 07:17:36;;;;;;;13.70;3.10;;;;;;;13.77;39.52;94375.38;5084063;28;20098;-73
2022/05/08 07:20:03;;;;;;;6.97;3.10;;;;;;;13.94;39.27;94379.88;5083865;28;20020;-73
2022/05/08 07:22:28;;;;;;;8.50;3.15;;;;;;;14.05;39.68;94370.41;5083753;28;20052;-73
2022/05/08 07:24:54;;;;;;;17.27;4.03;;;;;;;14.19;39.89;94370.97;5083762;28;20199;-73
2022/05/08 07:27:19;;;;;;;9.18;3.55;;;;;;;14.28;39.22;94370.13;5083843;28;20035;-73
2022/05/08 07:29:44;;;;;;;8.38;3.20;;;;;;;14.38;38.90;94369.75;5083577;28;20017;-73
2022/05/08 07:32:10;;;;;;;9.30;2.72;;;;;;;14.43;38.07;94365.00;5083985;28;20016;-83
2022/05/08 07:37:20;;;;;;;11.15;3.08;;;;;;;14.55;36.87;94366.19;5083979;28;20254;-82
2022/05/08 07:39:46;;;;;;;7.85;2.92;;;;;;;14.59;37.51;94365.25;5084230;28;20028;-86
2022/05/08 07:42:11;;;;;;;10.25;3.10;;;;;;;14.70;37.54;94372.91;5083724;28;20031;-84
2022/05/08 07:44:37;;;;;;;17.02;4.97;;;;;;;14.81;37.04;94363.34;5083707;28;20046;-85
2022/05/08 07:47:03;;;;;;;7.07;2.72;;;;;;;14.92;37.24;94358.38;5084119;28;20307;-84
2022/05/08 07:49:28;;;;;;;7.22;2.80;;;;;;;14.97;36.64;94360.88;5084301;28;20028;-83
2022/05/08 07:51:54;;;;;;;6.00;2.60;;;;;;;15.03;36.33;94360.34;5083476;28;20341;-84
2022/05/08 07:54:19;;;;;;;6.10;2.53;;;;;;;15.00;36.35;94361.00;5083075;28;20222;-84
2022/05/08 07:56:45;;;;;;;13.35;2.97;;;;;;;15.02;36.16;94352.59;5083330;28;20024;-84
2022/05/08 07:59:10;;;;;;;10.88;2.35;;;;;;;15.14;36.76;94354.56;5083082;28;20040;-83
2022/05/08 08:01:36;;;;;;;14.82;3.38;;;;;;;15.28;36.67;94347.00;5083527;28;20024;-84
2022/05/08 08:04:05;;;;;;;11.50;2.67;;;;;;;15.40;36.32;94348.97;5083213;28;20032;-84
2022/05/08 08:06:32;;;;;;;12.57;2.67;;;;;;;15.49;35.72;94348.84;5083908;28;20029;-85
2022/05/08 08:08:58;;;;;;;8.02;2.95;;;;;;;15.54;35.55;94346.75;5083907;28;20029;-85
2022/05/08 08:11:24;;;;;;;10.27;3.03;;;;;;;15.64;35.58;94342.88;5084185;28;20025;-84
2022/05/08 08:13:49;;;;;;;6.00;2.80;;;;;;;15.73;35.00;94348.94;5083503;28;20070;-85
2022/05/08 08:16:15;;;;;;;14.30;3.17;;;;;;;15.86;34.95;94347.09;5084567;28;20068;-85
2022/05/08 08:18:43;;;;;;;10.02;2.90;;;;;;;15.98;35.23;94343.63;5083658;28;20024;-84
2022/05/08 08:21:12;;;;;;;9.38;2.92;;;;;;;16.02;33.89;94344.53;5066319;28;20027;-84
2022/05/08 08:23:39;;;;;;;5.95;2.85;;;;;;;16.02;33.83;94348.00;5083748;28;20027;-84
2022/05/08 08:26:05;;;;;;;6.47;2.85;;;;;;;16.16;34.27;94353.03;5083369;28;20028;-83
2022/05/08 08:28:30;;;;;;;7.55;3.42;;;;;;;16.30;33.33;94341.16;5083617;28;20017;-84
2022/05/08 08:30:56;;;;;;;9.73;2.78;;;;;;;16.41;33.10;94344.97;5083330;28;20034;-84
2022/05/08 08:33:22;;;;;;;6.22;2.95;;;;;;;16.50;32.14;94337.53;5083467;28;20027;-84
2022/05/08 08:35:47;;;;;;;9.82;2.85;;;;;;;16.59;33.08;94343.59;5083150;28;20023;-85
2022/05/08 08:38:14;;;;;;;10.93;2.60;;;;;;;16.71;32.60;94337.41;5082769;28;20334;-84
2022/05/08 08:40:41;;;;;;;6.60;2.28;;;;;;;16.80;32.02;94338.03;5083089;28;20087;-84
2022/05/08 08:43:11;;;;;;;9.32;2.58;;;;;;;16.91;32.21;94340.28;5082809;28;20134;-84
2022/05/08 08:48:34;;;;;;;11.63;2.58;;;;;;;17.07;31.97;94326.91;5082782;28;20058;-83
2022/05/08 08:51:01;;;;;;;5.03;2.40;;;;;;;17.19;32.12;94319.53;5082751;28;20054;-83
2022/05/08 08:53:27;;;;;;;11.02;2.95;;;;;;;17.31;31.84;94334.88;5082913;28;20012;-83
2022/05/08 08:55:53;;;;;;;6.75;2.50;;;;;;;17.45;30.89;94321.78;5082594;28;20052;-83
2022/05/08 08:58:20;;;;;;;5.85;1.90;;;;;;;17.49;30.37;94315.72;5082520;28;20036;-83
2022/05/08 09:00:47;;;;;;;7.90;2.72;;;;;;;17.59;30.70;94320.59;5082708;28;20020;-82
2022/05/08 09:03:26;;;;;;;10.52;2.78;;;;;;;17.67;30.50;94324.22;5082497;28;20028;-82
2022/05/08 09:05:59;;;;;;;8.32;2.58;;;;;;;17.69;30.70;94320.09;5082833;28;20032;-82
2022/05/08 09:08:29;;;;;;;6.22;2.30;;;;;;;17.71;30.44;94312.44;5082433;28;20024;-82
2022/05/08 09:10:58;;;;;;;7.32;3.33;;;;;;;17.78;30.48;94317.22;5082698;28;20032;-82
2022/05/08 09:13:30;;;;;;;10.95;2.38;;;;;;;17.94;30.65;94319.94;5082653;28;20323;-82
2022/05/08 09:16:13;;;;;;;;;;;;;;;18.07;30.02;94313.31;5082864;28;20083;-82
2022/05/08 09:18:46;;;;;;;8.88;2.50;;;;;;;18.16;29.14;94300.44;5082485;28;19905;-82
2022/05/08 09:24:13;;;;;;;7.63;2.13;;;;;;;18.36;29.14;94300.47;5082349;28;20082;-82
2022/05/08 09:26:38;;;;;;;4.53;2.10;;;;;;;18.52;29.20;94301.25;5082532;28;20137;-82
2022/05/08 09:29:04;;;;;;;4.95;2.08;;;;;;;18.64;28.28;94311.94;5082566;28;20318;-82
2022/05/08 09:31:40;;;;;;;11.93;2.92;;;;;;;18.82;27.00;94308.84;5082436;28;20020;-82
2022/05/08 09:34:06;;;;;;;4.88;2.40;;;;;;;18.89;26.84;94303.59;5082410;28;20094;-82
2022/05/08 09:36:31;;;;;;;5.50;1.73;;;;;;;19.03;26.66;94301.19;5083031;28;20024;-81
2022/05/08 09:38:59;;;;;;;5.38;1.83;;;;;;;19.13;27.29;94307.94;5068352;28;20230;-81
2022/05/08 09:41:37;;;;;;;4.18;2.10;;;;;;;19.15;26.04;94294.84;5086111;28;20024;-82
2022/05/08 09:44:16;;;;;;;3.30;1.70;;;;;;;19.27;26.12;94285.78;5085740;28;20025;-82
2022/05/08 09:46:44;;;;;;;4.18;2.03;;;;;;;19.41;26.41;94286.06;5085914;28;20267;-82
2022/05/08 09:49:20;;;;;;;3.83;2.15;;;;;;;19.53;25.99;94281.63;5085901;28;20070;-82
2022/05/08 09:51:47;;;;;;;9.32;2.13;;;;;;;19.58;24.99;94282.13;5085609;28;20032;-82
2022/05/08 09:54:16;;;;;;;3.72;1.95;;;;;;;19.71;24.28;94276.56;5086037;28;20087;-81
2022/05/08 09:56:42;;;;;;;6.10;1.67;;;;;;;19.78;23.83;94272.06;5085690;28;20302;-82
2022/05/08 09:59:10;;;;;;;9.98;2.53;;;;;;;19.88;24.98;94264.47;5085588;28;20059;-81
2022/05/08 10:01:37;;;;;;;11.18;2.05;;;;;;;20.00;23.82;94267.75;5085541;28;20024;-82
2022/05/08 10:04:03;;;;;;;4.50;2.20;;;;;;;20.14;22.62;94266.44;5085750;28;20024;-82
2022/05/08 10:06:32;;;;;;;3.42;1.50;;;;;;;20.17;22.41;94261.06;5085618;28;20024;-82
2022/05/08 10:14:49;;;;;;;3.47;1.75;;;;;;;20.51;22.43;94258.44;5043601;28;20099;-82
2022/05/08 10:17:26;;;;;;;3.15;1.77;;;;;;;20.48;23.63;94253.78;5059373;28;20029;-82
2022/05/08 10:19:52;;;;;;;4.50;2.22;;;;;;;20.58;24.63;94258.59;5085227;28;20298;-81
2022/05/08 10:22:17;;;;;;;6.70;2.20;;;;;;;20.66;23.93;94253.25;5085150;28;20016;-81
2022/05/08 10:24:54;;;;;;;7.40;2.45;;;;;;;20.75;24.60;94251.81;5085414;28;20379;-81
2022/05/08 10:27:27;;;;;;;6.10;2.08;;;;;;;20.81;23.84;94249.56;5085104;28;20169;-81
2022/05/08 10:29:52;;;;;;;6.32;1.73;;;;;;;20.87;23.47;94247.34;5085224;28;20066;-81
2022/05/08 10:32:33;;;;;;;6.72;2.33;;;;;;;20.90;23.54;94241.16;5085104;28;20024;-81
2022/05/08 10:35:20;;;;;;;8.00;2.40;;;;;;;21.01;23.99;94236.66;5085073;28;20025;-81
2022/05/08 10:37:50;;;;;;;6.80;2.05;;;;;;;21.10;23.61;94233.66;5084822;28;20052;-81
2022/05/08 10:40:21;;;;;;;8.35;2.35;;;;;;;21.24;23.35;94239.22;5085011;28;20251;-82
2022/05/08 10:42:51;;;;;;;4.18;1.85;;;;;;;21.37;22.56;94237.00;5084612;28;20078;-81
2022/05/08 10:45:36;;;;;;;6.88;1.95;;;;;;;21.48;22.89;94231.75;5084689;28;20024;-82
2022/05/08 10:48:13;;;;;;;5.28;2.20;;;;;;;21.47;22.66;94219.31;5084148;28;20250;-81
2022/05/08 10:50:41;;;;;;;11.70;1.88;;;;;;;21.57;22.64;94224.84;5084828;28;20024;-82
2022/05/08 10:53:26;;;;;;;6.80;2.40;;;;;;;21.73;22.64;94223.81;5084849;28;20095;-82
2022/05/08 10:55:58;;;;;;;5.32;1.70;;;;;;;21.83;22.39;94223.91;5084982;28;20029;-81
2022/05/08 10:58:23;;;;;;;6.38;2.40;;;;;;;21.91;22.04;94221.25;5084189;28;20273;-81
2022/05/08 11:00:49;;;;;;;4.55;1.80;;;;;;;22.01;22.42;94223.25;5084208;28;20040;-81
2022/05/08 11:03:22;;;;;;;9.90;2.25;;;;;;;21.98;22.25;94221.28;5084131;28;20101;-81
2022/05/08 11:05:47;;;;;;;9.25;2.72;;;;;;;22.07;22.27;94212.84;5084449;28;20031;-81
2022/05/08 11:08:21;;;;;;;4.97;1.88;;;;;;;22.23;23.17;94200.56;5084089;28;20025;-82
2022/05/08 11:10:56;;;;;;;5.63;1.98;;;;;;;22.34;22.34;94216.13;5084444;28;20021;-81
2022/05/08 11:13:21;;;;;;;3.00;1.77;;;;;;;22.34;22.10;94210.69;5066348;28;20044;-82
2022/05/08 11:15:51;;;;;;;5.30;2.30;;;;;;;22.44;22.83;94209.97;5084304;28;20262;-82
2022/05/08 11:18:20;;;;;;;5.88;2.10;;;;;;;22.51;21.81;94203.78;5084072;28;20036;-82
2022/05/08 11:20:49;;;;;;;6.90;2.53;;;;;;;22.59;22.90;94208.09;5084080;28;20028;-81
2022/05/08 11:23:16;;;;;;;6.40;2.00;;;;;;;22.67;22.45;94206.22;5083792;28;20033;-81
2022/05/08 11:25:46;;;;;;;10.35;2.33;;;;;;;22.73;22.40;94193.81;5083957;28;20031;-82
2022/05/08 11:28:24;;;;;;;8.95;2.78;;;;;;;22.84;22.93;94200.06;5083495;28;20020;-81
2022/05/08 11:30:50;;;;;;;5.05;2.35;;;;;;;22.93;21.30;94192.31;5083751;28;20035;-81
2022/05/08 11:36:10;;;;;;;10.10;2.47;;;;;;;23.12;22.83;94185.03;5083978;28;20218;-79
2022/05/08 11:38:52;;;;;;;3.80;2.05;;;;;;;23.27;21.79;94189.34;5066012;28;20021;-79
2022/05/08 11:41:39;;;;;;;6.60;2.05;;;;;;;23.39;21.13;94180.03;5083465;28;20099;-80
2022/05/08 11:44:13;;;;;;;5.95;1.70;;;;;;;23.53;20.76;94176.53;5065524;28;20364;-80
2022/05/08 11:46:41;;;;;;;7.72;2.22;;;;;;;23.62;19.10;94172.25;5083208;28;20231;-80
2022/05/08 11:49:25;;;;;;;8.43;2.15;;;;;;;23.73;19.92;94176.94;5083175;28;20346;-81
2022/05/08 11:51:53;;;;;;;4.68;1.98;;;;;;;23.84;19.06;94172.28;5065296;28;20095;-82
2022/05/08 11:54:30;;;;;;;6.32;1.70;;;;;;;23.98;19.32;94171.50;5082951;28;20196;-77
2022/05/08 11:57:14;;;;;;;9.45;2.33;;;;;;;24.11;19.00;94175.38;5083019;28;20028;-78
2022/05/08 11:59:42;;;;;;;4.57;1.60;;;;;;;24.22;17.83;94175.34;5082897;28;20085;-81
2022/05/08 12:02:08;;;;;;;5.15;1.67;;;;;;;24.36;17.36;94160.91;5083328;28;20215;-81
2022/05/08 12:04:34;;;;;;;5.00;2.22;;;;;;;24.47;17.42;94163.63;5082094;28;20020;-81
2022/05/08 12:07:11;;;;;;;5.57;1.63;;;;;;;24.60;17.03;94157.34;5082417;28;20020;-81
2022/05/08 12:09:38;;;;;;;7.07;1.73;;;;;;;24.81;16.78;94152.97;5081527;28;20161;-85
2022/05/08 12:12:26;;;;;;;6.38;1.90;;;;;;;24.98;16.10;94154.06;5081883;28;20016;-84